Time;durP1;ratioP1;P1;durP2;ratioP2;P2;SDS_P1;SDS_P2;PMS_P1;PMS_P2;Temp;Humidity;BMP_temperature;BMP_pressure;BME280_temperature;BME280_humidity;BME280_pressure;Samples;Min_cycle;Max_cycle;Signal;HPM_P1;HPM_P2
2021/11/03 00:01:34;;;;;;;86.85;61.15;;;;;;;8.53;82.87;99863.19;1749007;82;21543;-87
2021/11/03 00:04:01;;;;;;;90.12;62.65;;;;;;;8.54;82.93;99865.41;1748879;81;21780;-86
2021/11/03 00:06:28;;;;;;;90.00;61.15;;;;;;;8.52;82.88;99869.31;1749412;80;21563;-86
2021/11/03 00:08:57;;;;;;;92.05;63.38;;;;;;;8.50;82.88;99868.40;1749940;81;21011;-86
2021/11/03 00:11:25;;;;;;;86.78;59.95;;;;;;;8.50;82.93;99870.11;1749938;82;21085;-86
2021/11/03 00:13:51;;;;;;;88.50;61.30;;;;;;;8.49;82.91;99867.92;1749281;82;21054;-86
2021/11/03 00:16:18;;;;;;;88.05;60.33;;;;;;;8.48;82.89;99871.83;1749342;81;22357;-87
2021/11/03 00:18:45;;;;;;;88.15;60.45;;;;;;;8.47;82.96;99872.26;1748923;80;21085;-87
2021/11/03 00:21:12;;;;;;;87.50;59.08;;;;;;;8.47;82.95;99872.70;1749041;81;21053;-88
2021/11/03 00:23:38;;;;;;;86.65;58.50;;;;;;;8.47;82.98;99872.26;1749436;82;21011;-87
2021/11/03 00:26:05;;;;;;;80.90;57.55;;;;;;;8.48;82.97;99870.52;1749726;82;21025;-87
2021/11/03 00:28:31;;;;;;;93.12;57.20;;;;;;;8.48;83.02;99875.76;1749746;81;22505;-86
2021/11/03 00:30:58;;;;;;;83.50;57.00;;;;;;;8.50;83.02;99875.36;1749427;81;20998;-85
2021/11/03 00:33:28;;;;;;;85.65;58.33;;;;;;;8.49;82.97;99880.16;1749513;82;21136;-90
2021/11/03 00:35:54;;;;;;;78.67;55.43;;;;;;;8.48;83.01;99880.56;1749327;81;21173;-89
2021/11/03 00:38:21;;;;;;;82.10;57.90;;;;;;;8.49;83.03;99881.04;1749205;81;21058;-89
2021/11/03 00:40:48;;;;;;;80.28;55.20;;;;;;;8.48;83.06;99885.81;1749831;80;21703;-91
2021/11/03 00:43:15;;;;;;;80.57;56.05;;;;;;;8.49;83.00;99877.54;1749894;82;21045;-91
2021/11/03 00:45:42;;;;;;;78.00;54.88;;;;;;;8.48;82.99;99883.62;1749186;81;21012;-91
2021/11/03 00:48:08;;;;;;;77.90;55.03;;;;;;;8.48;83.09;99874.45;1753843;80;21117;-91
2021/11/03 00:50:35;;;;;;;71.10;53.20;;;;;;;8.48;83.09;99883.19;1755088;81;21948;-90
2021/11/03 00:53:01;;;;;;;70.35;50.25;;;;;;;8.48;83.07;99880.56;1755135;81;21727;-90
2021/11/03 00:55:28;;;;;;;74.95;52.30;;;;;;;8.47;83.07;99877.50;1754822;81;21563;-90
2021/11/03 00:57:55;;;;;;;80.15;55.03;;;;;;;8.47;83.08;99881.44;1755830;81;21038;-89
2021/11/03 01:00:21;;;;;;;74.40;51.00;;;;;;;8.47;83.12;99885.81;1755775;81;21014;-90
2021/11/03 01:02:48;;;;;;;73.87;48.98;;;;;;;8.47;83.05;99885.81;1755811;81;21092;-89
2021/11/03 01:05:19;;;;;;;68.07;47.58;;;;;;;8.47;83.22;99880.13;1755911;81;21728;-89
2021/11/03 01:07:46;;;;;;;71.57;49.00;;;;;;;8.50;83.14;99881.91;1755961;81;22177;-90
2021/11/03 01:10:12;;;;;;;68.45;47.00;;;;;;;8.47;83.10;99877.50;1755892;81;21638;-90
2021/11/03 01:12:39;;;;;;;65.72;45.43;;;;;;;8.48;83.17;99873.13;1756034;81;21164;-91
2021/11/03 01:15:09;;;;;;;65.67;45.20;;;;;;;8.47;83.16;99876.20;1755912;81;21745;-91
2021/11/03 01:17:36;;;;;;;61.68;43.42;;;;;;;8.47;83.19;99872.26;1755363;81;21956;-90
2021/11/03 01:20:05;;;;;;;60.67;41.63;;;;;;;8.47;83.17;99874.88;1755705;81;21692;-90
2021/11/03 01:22:32;;;;;;;53.63;38.33;;;;;;;8.48;83.22;99870.52;1755723;81;21068;-90
2021/11/03 01:24:59;;;;;;;51.28;36.90;;;;;;;8.50;83.24;99871.42;1755737;81;21172;-89
2021/11/03 01:27:25;;;;;;;42.75;28.65;;;;;;;8.51;83.24;99876.70;1755696;81;21051;-89
2021/11/03 01:29:52;;;;;;;40.55;29.42;;;;;;;8.52;83.29;99873.24;1755818;81;22540;-89
2021/11/03 01:32:19;;;;;;;32.10;23.83;;;;;;;8.53;83.34;99867.56;1755732;81;21018;-90
2021/11/03 01:34:45;;;;;;;31.15;21.35;;;;;;;8.53;83.39;99875.43;1755820;81;21312;-90
2021/11/03 01:37:12;;;;;;;29.63;20.10;;;;;;;8.56;83.56;99878.13;1755966;81;21531;-91
2021/11/03 01:39:38;;;;;;;25.95;19.02;;;;;;;8.59;83.64;99876.84;1756020;81;21101;-90
2021/11/03 01:42:05;;;;;;;27.35;19.65;;;;;;;8.64;83.75;99881.77;1756038;81;21729;-91
2021/11/03 01:44:32;;;;;;;28.42;18.92;;;;;;;8.62;83.72;99866.42;1755999;81;21232;-91
2021/11/03 01:47:41;;;;;;;35.73;21.48;;;;;;;8.67;83.69;99881.83;1754363;80;21061;-90
2021/11/03 01:50:55;;;;;;;27.77;18.95;;;;;;;8.70;83.76;99875.31;1750124;82;21018;-92
2021/11/03 01:53:26;;;;;;;23.15;15.85;;;;;;;8.73;83.78;99876.69;1750320;82;21046;-90
2021/11/03 01:56:06;;;;;;;21.77;14.65;;;;;;;8.75;83.83;99876.28;1749790;82;21838;-89
2021/11/03 01:58:50;;;;;;;18.27;13.88;;;;;;;8.76;83.78;99877.16;1750011;81;21047;-89
2021/11/03 02:01:17;;;;;;;19.62;12.35;;;;;;;8.75;83.76;99880.66;1750324;81;21082;-91
2021/11/03 02:03:43;;;;;;;16.05;12.28;;;;;;;8.76;83.81;99877.16;1750187;81;21026;-90
2021/11/03 02:06:14;;;;;;;16.10;11.73;;;;;;;8.75;83.85;99882.84;1750458;81;21591;-91
2021/11/03 02:08:42;;;;;;;17.40;12.33;;;;;;;8.78;83.94;99876.75;1750078;81;22533;-85
2021/11/03 02:11:10;;;;;;;16.90;11.97;;;;;;;8.81;83.92;99878.13;1749629;82;21603;-85
2021/11/03 02:13:37;;;;;;;14.03;10.13;;;;;;;8.83;83.95;99876.42;1749462;82;21022;-85
2021/11/03 02:16:04;;;;;;;10.88;8.98;;;;;;;8.85;83.91;99875.14;1749748;82;21042;-86
2021/11/03 02:18:32;;;;;;;10.08;8.38;;;;;;;8.88;83.96;99876.52;1749871;82;21077;-86
2021/11/03 02:20:59;;;;;;;10.13;8.00;;;;;;;8.90;83.95;99876.11;1749792;82;21827;-86
2021/11/03 02:23:40;;;;;;;13.43;8.20;;;;;;;8.91;83.90;99868.23;1749693;82;21046;-85
2021/11/03 02:26:11;;;;;;;13.62;8.58;;;;;;;8.92;83.89;99867.40;1749996;82;21113;-85
2021/11/03 02:28:40;;;;;;;13.05;8.08;;;;;;;8.93;83.85;99871.81;1749786;82;21074;-85
2021/11/03 02:31:07;;;;;;;9.35;7.58;;;;;;;8.93;83.82;99874.84;1749721;82;21530;-84
2021/11/03 02:33:34;;;;;;;10.25;7.95;;;;;;;8.93;83.77;99865.65;1749831;82;22525;-84
2021/11/03 02:36:06;;;;;;;9.25;6.78;;;;;;;8.93;83.87;99871.81;1749784;82;21069;-84
2021/11/03 02:38:41;;;;;;;11.30;7.65;;;;;;;8.94;83.84;99870.06;1749814;82;21073;-84
2021/11/03 02:41:12;;;;;;;11.33;7.80;;;;;;;8.94;83.79;99871.37;1749830;82;21077;-84
2021/11/03 02:43:46;;;;;;;13.13;8.60;;;;;;;8.95;83.79;99874.43;1749739;80;21058;-84
2021/11/03 02:46:13;;;;;;;11.80;7.45;;;;;;;8.90;83.72;99866.49;1749766;81;21249;-85
2021/11/03 02:48:41;;;;;;;11.15;8.00;;;;;;;8.94;83.76;99872.69;1754042;81;21088;-84
2021/11/03 02:51:15;;;;;;;10.50;7.53;;;;;;;8.93;83.73;99876.15;1755307;80;21054;-84
2021/11/03 02:53:51;;;;;;;;;;;;;;;8.94;83.74;99878.80;1732239;81;21084;-85
2021/11/03 02:56:21;;;;;;;10.48;6.37;;;;;;;8.95;83.79;99881.90;1754618;81;20205;-85
2021/11/03 02:58:48;;;;;;;9.48;6.40;;;;;;;8.96;83.78;99882.77;1755790;81;21742;-85
2021/11/03 03:01:22;;;;;;;9.50;6.53;;;;;;;8.95;83.75;99883.22;1755634;81;21057;-85
2021/11/03 03:03:49;;;;;;;7.95;5.62;;;;;;;8.96;83.76;99885.40;1729157;81;21057;-85
2021/11/03 03:06:21;;;;;;;9.30;5.45;;;;;;;8.95;83.73;99888.87;1755055;81;21120;-85
2021/11/03 03:08:47;;;;;;;9.35;5.20;;;;;;;8.94;83.74;99889.30;1755047;81;21065;-87
2021/11/03 03:11:15;;;;;;;9.48;5.53;;;;;;;8.93;83.71;99888.87;1754790;81;21757;-87
2021/11/03 03:13:41;;;;;;;9.05;4.87;;;;;;;8.93;83.74;99891.48;1754688;81;21046;-87
2021/11/03 03:16:08;;;;;;;7.40;5.10;;;;;;;8.92;83.71;99887.08;1754557;81;21124;-87
2021/11/03 03:18:35;;;;;;;6.30;4.90;;;;;;;8.93;83.76;99887.55;1754732;81;21503;-86
2021/11/03 03:21:01;;;;;;;10.95;5.60;;;;;;;8.94;83.76;99887.12;1755243;81;21124;-86
2021/11/03 03:23:28;;;;;;;6.80;4.53;;;;;;;8.95;83.81;99883.62;1755461;81;21723;-86
2021/11/03 03:25:57;;;;;;;8.75;4.67;;;;;;;8.97;83.72;99886.27;1755414;81;20995;-86
2021/11/03 03:28:24;;;;;;;8.23;5.42;;;;;;;8.96;83.68;99889.34;1755817;81;21027;-87
2021/11/03 03:30:51;;;;;;;6.90;5.10;;;;;;;8.95;83.71;99888.46;1755750;81;21358;-88
2021/11/03 03:33:18;;;;;;;8.60;6.72;;;;;;;8.94;83.67;99890.61;1755782;81;21041;-88
2021/11/03 03:35:44;;;;;;;9.00;5.95;;;;;;;8.93;83.69;99891.48;1755780;81;21691;-88
2021/11/03 03:38:11;;;;;;;7.35;5.85;;;;;;;8.95;83.71;99888.87;1755768;81;21241;-88
2021/11/03 03:40:38;;;;;;;7.72;5.83;;;;;;;8.94;83.63;99885.37;1755875;81;21033;-87
2021/11/03 03:43:04;;;;;;;7.50;6.20;;;;;;;8.93;83.64;99891.48;1755698;81;21018;-88
2021/11/03 03:45:31;;;;;;;9.45;6.33;;;;;;;8.94;83.67;99886.68;1755839;81;21077;-87
2021/11/03 03:47:58;;;;;;;7.97;5.92;;;;;;;8.95;83.71;99888.87;1755600;80;22508;-89
2021/11/03 03:50:24;;;;;;;7.97;6.47;;;;;;;8.93;83.63;99890.18;1755805;80;21528;-89
2021/11/03 03:52:51;;;;;;;9.05;6.20;;;;;;;8.95;83.68;99895.43;1755929;81;21050;-88
2021/11/03 03:55:18;;;;;;;10.65;7.58;;;;;;;8.94;83.64;99889.73;1755752;81;21115;-89
2021/11/03 03:57:44;;;;;;;10.53;6.85;;;;;;;8.94;83.65;99887.99;1756025;81;21144;-87
2021/11/03 04:00:15;;;;;;;7.65;6.08;;;;;;;8.93;83.65;99892.80;1755853;81;22487;-87
2021/11/03 04:02:43;;;;;;;9.30;6.05;;;;;;;8.94;83.68;99891.05;1755738;81;21077;-86
2021/11/03 04:05:09;;;;;;;8.95;6.53;;;;;;;8.97;83.71;99891.52;1755843;81;21010;-86
2021/11/03 04:07:36;;;;;;;8.98;7.25;;;;;;;8.98;83.64;99899.44;1755836;81;21250;-86
2021/11/03 04:10:04;;;;;;;8.23;6.10;;;;;;;8.88;83.57;99883.08;1755829;81;21061;-86
2021/11/03 04:12:31;;;;;;;9.38;6.03;;;;;;;8.94;83.56;99895.86;1755807;81;21748;-86
2021/11/03 04:14:58;;;;;;;9.15;6.45;;;;;;;8.93;83.58;99901.98;1755812;81;21054;-86
2021/11/03 04:17:24;;;;;;;10.50;6.97;;;;;;;8.94;83.57;99904.17;1755650;81;21033;-86
2021/11/03 04:19:51;;;;;;;10.45;6.72;;;;;;;8.96;83.63;99903.77;1755723;81;21090;-85
2021/11/03 04:22:17;;;;;;;15.15;9.05;;;;;;;8.97;83.61;99892.84;1755916;81;21065;-86
2021/11/03 04:24:44;;;;;;;15.32;9.48;;;;;;;8.97;83.59;99895.46;1755964;81;21748;-86
2021/11/03 04:27:11;;;;;;;11.15;8.33;;;;;;;8.96;83.54;99898.52;1756097;81;21070;-91
2021/11/03 04:29:37;;;;;;;30.05;14.87;;;;;;;8.97;83.59;99904.65;1756099;81;21870;-92
2021/11/03 04:32:05;;;;;;;20.15;9.93;;;;;;;8.97;83.64;99904.21;1756096;81;21045;-91
2021/11/03 04:34:31;;;;;;;18.20;11.40;;;;;;;8.99;83.59;99904.24;1756249;81;21050;-90
2021/11/03 04:36:58;;;;;;;10.48;7.55;;;;;;;8.98;83.60;99907.30;1756090;81;21729;-91
2021/11/03 04:39:25;;;;;;;19.50;11.25;;;;;;;8.99;83.58;99910.41;1756009;81;21002;-90
2021/11/03 04:41:52;;;;;;;12.30;8.23;;;;;;;8.99;83.60;99913.43;1756073;81;20986;-89
2021/11/03 04:44:18;;;;;;;10.50;6.87;;;;;;;8.98;83.50;99912.55;1755801;81;21045;-87
2021/11/03 04:46:45;;;;;;;8.30;6.75;;;;;;;8.97;83.58;99909.90;1755802;81;21079;-89
2021/11/03 04:49:13;;;;;;;7.40;6.25;;;;;;;8.98;83.56;99922.18;1751257;80;22658;-90
2021/11/03 04:51:40;;;;;;;14.78;9.68;;;;;;;8.99;83.56;99919.99;1750175;82;21034;-89
2021/11/03 04:54:06;;;;;;;15.65;12.35;;;;;;;8.97;83.48;99917.77;1750177;82;20994;-90
2021/11/03 04:56:36;;;;;;;16.35;10.50;;;;;;;8.95;83.51;99921.67;1750094;82;21268;-91
2021/11/03 04:59:03;;;;;;;17.80;14.10;;;;;;;8.95;83.51;99930.86;1750198;82;21551;-89
2021/11/03 05:01:30;;;;;;;10.40;7.80;;;;;;;8.95;83.56;99932.17;1750253;81;21741;-90
2021/11/03 05:03:56;;;;;;;11.33;9.03;;;;;;;8.93;83.49;99932.17;1746440;80;21591;-90
2021/11/03 05:06:26;;;;;;;12.13;8.38;;;;;;;8.93;83.57;99938.73;1745882;82;21039;-89
2021/11/03 05:08:53;;;;;;;10.88;9.50;;;;;;;8.92;83.55;99935.64;1745844;82;21074;-88
2021/11/03 05:11:20;;;;;;;14.05;11.28;;;;;;;8.92;83.52;99934.77;1732864;82;21113;-87
2021/11/03 05:13:48;;;;;;;10.78;9.65;;;;;;;8.93;83.53;99941.77;1726541;83;22556;-87
2021/11/03 05:16:18;;;;;;;10.30;9.10;;;;;;;8.92;83.52;99940.89;1726483;83;21054;-86
2021/11/03 05:18:45;;;;;;;11.03;9.78;;;;;;;8.92;83.54;99945.27;1726204;82;21102;-86
2021/11/03 05:21:12;;;;;;;10.03;8.95;;;;;;;8.92;83.58;99944.83;1726631;83;21003;-88
2021/11/03 05:23:41;;;;;;;11.03;9.50;;;;;;;8.94;83.56;99948.80;1726783;83;21117;-87
2021/11/03 05:26:08;;;;;;;14.60;10.18;;;;;;;8.92;83.48;99952.70;1726602;83;21752;-87
2021/11/03 05:28:37;;;;;;;10.90;9.80;;;;;;;8.92;83.52;99958.39;1726647;83;21082;-89
2021/11/03 05:31:04;;;;;;;11.08;9.90;;;;;;;8.92;83.58;99963.20;1726907;81;21030;-92
2021/11/03 05:33:31;;;;;;;14.30;10.93;;;;;;;8.92;83.48;99964.95;1726762;83;21007;-90
2021/11/03 05:35:58;;;;;;;12.85;10.58;;;;;;;8.89;83.44;99965.75;1726694;83;21065;-90
2021/11/03 05:38:25;;;;;;;15.63;10.80;;;;;;;8.88;83.50;99971.00;1707564;83;41335;-92
2021/11/03 05:40:58;;;;;;;11.65;10.05;;;;;;;8.89;83.50;99967.50;1729493;80;21527;-91
2021/11/03 05:43:24;;;;;;;12.95;10.13;;;;;;;8.86;83.48;99969.65;1726864;83;21055;-90
2021/11/03 05:45:51;;;;;;;15.32;11.35;;;;;;;8.86;83.46;99971.37;1726802;83;21000;-88
2021/11/03 05:48:19;;;;;;;13.55;10.35;;;;;;;8.85;83.48;99966.98;1726615;83;21564;-91
2021/11/03 05:50:47;;;;;;;13.60;10.05;;;;;;;8.86;83.49;99970.05;1726690;83;21811;-88
2021/11/03 05:53:13;;;;;;;12.50;9.50;;;;;;;8.85;83.48;99969.18;1726752;83;21512;-89
2021/11/03 05:55:41;;;;;;;14.00;9.33;;;;;;;8.86;83.50;99975.30;1726641;83;21066;-88
2021/11/03 05:58:08;;;;;;;16.15;9.88;;;;;;;8.84;83.41;99980.55;1726548;81;21039;-88
2021/11/03 06:00:36;;;;;;;13.78;8.45;;;;;;;8.84;83.44;99982.27;1726617;83;21754;-91
2021/11/03 06:03:02;;;;;;;17.60;9.18;;;;;;;8.84;83.48;99983.17;1726531;83;22651;-91
2021/11/03 06:05:32;;;;;;;14.07;9.18;;;;;;;8.85;83.48;99982.73;1726603;83;21163;-95
2021/11/03 06:08:07;;;;;;;10.30;8.20;;;;;;;8.83;83.37;99985.76;1708632;83;21635;-96
2021/11/03 06:10:38;;;;;;;13.38;9.38;;;;;;;8.83;83.36;99989.26;1725348;83;21600;-89
2021/11/03 06:13:05;;;;;;;12.80;9.75;;;;;;;8.83;83.37;99985.76;1726826;81;21528;-89
2021/11/03 06:15:33;;;;;;;17.30;12.03;;;;;;;8.84;83.34;99991.45;1726633;81;21644;-89
2021/11/03 06:18:00;;;;;;;18.17;12.75;;;;;;;8.81;83.32;99990.09;1726429;81;21564;-89
2021/11/03 06:20:27;;;;;;;10.88;8.53;;;;;;;8.81;83.37;99991.41;1726392;81;21560;-85
2021/11/03 06:22:54;;;;;;;14.23;8.50;;;;;;;8.82;83.33;99997.09;1726421;81;21027;-87
2021/11/03 06:25:21;;;;;;;12.25;8.38;;;;;;;8.83;83.36;99998.88;1726757;81;21015;-89
2021/11/03 06:27:50;;;;;;;15.03;10.70;;;;;;;8.81;83.29;100000.59;1726412;81;22652;-89
2021/11/03 06:30:23;;;;;;;13.55;8.53;;;;;;;8.81;83.30;100003.22;1707476;83;21090;-88
2021/11/03 06:32:50;;;;;;;14.28;11.40;;;;;;;8.81;83.32;100004.53;1726681;83;21066;-87
2021/11/03 06:35:17;;;;;;;15.30;11.80;;;;;;;8.83;83.35;100008.06;1726430;83;21181;-88
2021/11/03 06:37:44;;;;;;;15.18;9.75;;;;;;;8.80;83.27;100007.56;1726745;83;21086;-88
2021/11/03 06:40:13;;;;;;;16.00;9.05;;;;;;;8.81;83.25;100008.03;1726622;83;21732;-87
2021/11/03 06:42:40;;;;;;;11.78;9.08;;;;;;;8.82;83.25;100009.81;1726615;83;21050;-87
2021/11/03 06:45:07;;;;;;;11.28;8.23;;;;;;;8.83;83.23;100012.00;1726799;83;21086;-87
2021/11/03 06:47:34;;;;;;;14.75;9.95;;;;;;;8.83;83.19;100017.25;1726622;83;21547;-88
2021/11/03 06:50:01;;;;;;;18.52;10.85;;;;;;;8.84;83.17;100017.69;1726511;80;20987;-90
2021/11/03 06:52:31;;;;;;;16.95;11.65;;;;;;;8.85;83.18;100020.35;1727064;83;21989;-93
2021/11/03 06:54:58;;;;;;;16.67;11.85;;;;;;;8.88;83.19;100027.42;1727426;83;21030;-89
2021/11/03 06:57:25;;;;;;;19.73;11.97;;;;;;;8.90;83.18;100026.59;1726451;83;21568;-88
2021/11/03 06:59:53;;;;;;;13.43;10.60;;;;;;;8.91;83.17;100030.97;1726996;83;21071;-90
2021/11/03 07:02:22;;;;;;;13.18;10.15;;;;;;;8.93;83.15;100028.38;1726805;83;21074;-93
2021/11/03 07:04:48;;;;;;;14.23;10.03;;;;;;;8.95;83.18;100034.54;1727713;83;21719;-86
2021/11/03 07:07:15;;;;;;;12.75;9.48;;;;;;;9.01;83.21;100041.65;1726625;81;21731;-86
2021/11/03 07:09:42;;;;;;;16.97;9.48;;;;;;;9.02;83.16;100043.00;1726884;83;20995;-88
2021/11/03 07:12:09;;;;;;;13.13;10.43;;;;;;;9.05;83.14;100043.07;1728097;83;20995;-94
2021/11/03 07:14:36;;;;;;;17.70;12.35;;;;;;;9.09;83.08;100053.20;1727754;83;21082;-91
2021/11/03 07:17:03;;;;;;;13.95;11.12;;;;;;;9.11;83.00;100056.31;1726721;83;21727;-87
2021/11/03 07:19:30;;;;;;;17.70;12.23;;;;;;;9.12;82.96;100054.56;1727206;82;21074;-91
2021/11/03 07:21:57;;;;;;;17.85;12.88;;;;;;;9.16;83.07;100055.11;1727447;83;20995;-92
2021/11/03 07:24:23;;;;;;;14.23;11.53;;;;;;;9.22;83.05;100056.53;1727782;83;21042;-92
2021/11/03 07:26:50;;;;;;;18.05;12.80;;;;;;;9.26;82.94;100060.10;1727779;83;21003;-92
2021/11/03 07:29:17;;;;;;;18.17;13.50;;;;;;;9.30;82.94;100064.55;1728021;83;21772;-92
2021/11/03 07:31:43;;;;;;;18.32;13.40;;;;;;;9.34;82.81;100067.69;1727667;83;20994;-91
2021/11/03 07:34:10;;;;;;;17.05;13.32;;;;;;;9.38;82.80;100074.77;1728165;83;21050;-92
2021/11/03 07:36:36;;;;;;;16.65;13.03;;;;;;;9.43;82.83;100073.12;1727646;83;21082;-88
2021/11/03 07:39:03;;;;;;;17.67;13.25;;;;;;;9.49;82.82;100075.84;1726844;83;21258;-88
2021/11/03 07:41:30;;;;;;;21.62;13.93;;;;;;;9.56;82.79;100080.80;1726788;83;21722;-88
2021/11/03 07:43:57;;;;;;;22.42;13.28;;;;;;;9.60;82.73;100081.74;1727088;83;21058;-88
2021/11/03 07:46:23;;;;;;;16.12;12.40;;;;;;;9.68;82.68;100090.20;1727294;83;21042;-88
2021/11/03 07:48:50;;;;;;;17.30;12.35;;;;;;;9.75;82.64;100094.27;1725750;82;21145;-88
2021/11/03 07:51:17;;;;;;;14.93;11.43;;;;;;;9.80;82.63;100094.81;1719956;83;21173;-87
2021/11/03 07:53:45;;;;;;;20.68;12.05;;;;;;;9.82;82.39;100098.34;1720515;83;21807;-88
2021/11/03 07:56:19;;;;;;;17.15;11.97;;;;;;;9.86;82.48;100097.54;1720522;83;21136;-88
2021/11/03 07:58:45;;;;;;;17.40;10.88;;;;;;;9.95;82.45;100099.45;1720437;82;21025;-88
2021/11/03 08:01:12;;;;;;;16.30;10.93;;;;;;;9.97;82.22;100093.78;1719827;82;21132;-88
2021/11/03 08:03:38;;;;;;;12.60;10.15;;;;;;;10.02;82.17;100089.50;1720169;83;21026;-87
2021/11/03 08:06:06;;;;;;;16.17;11.15;;;;;;;10.10;82.01;100094.88;1720254;83;21765;-88
2021/11/03 08:08:37;;;;;;;14.10;10.80;;;;;;;10.14;81.79;100089.25;1720022;82;21607;-89
2021/11/03 08:11:04;;;;;;;15.43;10.90;;;;;;;10.19;81.72;100095.03;1695674;83;21555;-87
2021/11/03 08:13:32;;;;;;;16.20;12.00;;;;;;;10.25;81.67;100091.17;1720139;83;21054;-88
2021/11/03 08:16:02;;;;;;;14.38;10.53;;;;;;;10.31;81.53;100089.11;1719998;82;21113;-88
2021/11/03 08:18:41;;;;;;;16.37;12.15;;;;;;;10.36;81.37;100092.70;1720116;82;21776;-88
2021/11/03 08:21:10;;;;;;;16.52;10.95;;;;;;;10.41;81.29;100091.44;1720112;82;21011;-87
2021/11/03 08:23:37;;;;;;;16.82;10.65;;;;;;;10.45;81.20;100093.25;1666482;83;21406;-87
2021/11/03 08:26:03;;;;;;;16.60;11.33;;;;;;;10.48;81.00;100095.94;1719757;83;21113;-88
2021/11/03 08:28:30;;;;;;;18.55;13.43;;;;;;;10.53;80.94;100094.27;1719832;82;21057;-88
2021/11/03 08:30:56;;;;;;;18.48;15.25;;;;;;;10.56;80.87;100098.23;1720112;83;22383;-88
2021/11/03 08:33:30;;;;;;;26.17;21.48;;;;;;;10.61;80.79;100101.83;1719989;82;21023;-88
2021/11/03 08:35:57;;;;;;;28.25;21.05;;;;;;;10.64;80.69;100100.56;1720226;83;21524;-88
2021/11/03 08:38:24;;;;;;;35.48;23.07;;;;;;;10.68;80.64;100101.05;1720405;82;21088;-88
2021/11/03 08:40:51;;;;;;;30.23;21.20;;;;;;;10.72;80.50;100104.62;1720422;83;21065;-89
2021/11/03 08:43:23;;;;;;;35.08;25.02;;;;;;;10.79;80.49;100103.84;1720287;82;21711;-88
2021/11/03 08:45:50;;;;;;;34.70;23.05;;;;;;;10.86;80.45;100111.37;1719994;83;21046;-88
2021/11/03 08:48:17;;;;;;;29.12;23.18;;;;;;;10.98;80.57;100106.70;1720302;82;21096;-88
2021/11/03 08:50:43;;;;;;;22.65;18.55;;;;;;;11.01;80.37;100100.16;1719810;82;21010;-88
2021/11/03 08:53:11;;;;;;;20.92;17.77;;;;;;;11.11;80.13;100119.16;1719756;82;21042;-88
2021/11/03 08:55:37;;;;;;;20.43;16.10;;;;;;;11.16;80.03;100111.33;1720288;83;22160;-88
2021/11/03 08:58:05;;;;;;;21.02;16.93;;;;;;;11.14;79.76;100115.25;1720121;82;21017;-89
2021/11/03 09:00:34;;;;;;;28.98;23.12;;;;;;;11.14;79.57;100119.64;1720231;83;21077;-88
2021/11/03 09:03:00;;;;;;;28.15;21.77;;;;;;;11.13;79.58;100124.04;1720398;83;21062;-88
2021/11/03 09:05:28;;;;;;;28.38;19.77;;;;;;;11.11;79.34;100119.16;1720586;82;21053;-88
2021/11/03 09:07:55;;;;;;;22.10;16.85;;;;;;;11.08;79.22;100116.50;1720198;82;21761;-88
2021/11/03 09:10:23;;;;;;;19.25;15.35;;;;;;;11.11;79.26;100122.23;1720131;83;21162;-88
2021/11/03 09:12:50;;;;;;;22.37;16.10;;;;;;;11.19;79.42;100114.02;1720282;83;21030;-93
2021/11/03 09:15:18;;;;;;;17.67;13.00;;;;;;;11.29;79.36;100112.80;1720966;83;21049;-92
2021/11/03 09:17:45;;;;;;;20.05;13.70;;;;;;;11.42;79.45;100121.73;1720934;83;21085;-90
2021/11/03 09:20:13;;;;;;;18.55;12.28;;;;;;;11.55;79.42;100117.93;1720775;83;21805;-92
2021/11/03 09:22:40;;;;;;;17.40;13.62;;;;;;;11.68;79.13;100115.88;1720809;83;21062;-92
2021/11/03 09:25:10;;;;;;;30.70;20.17;;;;;;;11.81;79.00;100120.39;1720155;82;21524;-88
2021/11/03 09:27:37;;;;;;;23.90;16.85;;;;;;;11.89;78.68;100123.55;1720444;83;21042;-88
2021/11/03 09:30:05;;;;;;;16.90;11.93;;;;;;;11.99;78.55;100124.09;1721008;82;21034;-91
2021/11/03 09:32:36;;;;;;;20.72;14.68;;;;;;;12.05;78.27;100122.42;1720988;83;21590;-92
2021/11/03 09:35:03;;;;;;;17.87;13.22;;;;;;;12.10;78.08;100119.80;1720712;83;21042;-91
2021/11/03 09:37:32;;;;;;;15.58;12.00;;;;;;;12.15;77.92;100127.33;1720500;83;21123;-92
2021/11/03 09:39:59;;;;;;;24.95;16.32;;;;;;;12.21;77.87;100130.02;1720405;83;21123;-89
2021/11/03 09:42:26;;;;;;;20.50;15.70;;;;;;;12.30;77.98;100130.98;1720003;82;21065;-89
2021/11/03 09:44:55;;;;;;;17.85;14.07;;;;;;;12.38;77.76;100130.14;1720208;82;21771;-89
2021/11/03 09:47:33;;;;;;;23.38;15.98;;;;;;;12.44;77.63;100133.27;1720124;83;21021;-89
2021/11/03 09:50:19;;;;;;;19.42;13.58;;;;;;;12.44;77.41;100127.98;1722426;82;21039;-89
2021/11/03 09:52:57;;;;;;;24.12;15.83;;;;;;;12.42;77.35;100131.05;1726075;83;21333;-89
2021/11/03 09:55:33;;;;;;;23.77;15.60;;;;;;;12.34;77.09;100128.81;1707458;83;21133;-89
2021/11/03 09:58:07;;;;;;;19.27;13.70;;;;;;;12.24;77.01;100137.97;1725782;81;21780;-89
2021/11/03 10:01:01;;;;;;;19.87;11.75;;;;;;;12.16;77.13;100140.98;1724082;83;21596;-89
2021/11/03 10:04:07;;;;;;;14.87;11.10;;;;;;;12.07;76.92;100143.54;1696850;84;21332;-89
2021/11/03 10:07:21;;;;;;;15.78;11.08;;;;;;;12.02;77.06;100150.08;1725460;83;21634;-89
2021/11/03 10:09:42;;;;;;;16.77;10.35;;;;;;;11.96;77.04;100145.19;1699691;82;21197;-89
2021/11/03 10:12:15;;;;;;;13.98;10.70;;;;;;;11.97;77.15;100144.30;1718698;83;21761;-89
2021/11/03 10:14:42;;;;;;;16.77;11.48;;;;;;;11.97;76.97;100146.50;1697183;83;21023;-89
2021/11/03 10:17:30;;;;;;;14.05;10.05;;;;;;;11.87;76.56;100145.94;1726636;82;21528;-89
2021/11/03 10:19:56;;;;;;;16.52;10.98;;;;;;;11.78;76.49;100151.12;1726059;83;21078;-89
2021/11/03 10:22:37;;;;;;;17.00;11.08;;;;;;;11.71;76.59;100159.83;1696588;84;21548;-89
2021/11/03 10:25:27;;;;;;;27.27;16.95;;;;;;;11.65;76.66;100164.16;1725859;83;21142;-89
2021/11/03 10:27:58;;;;;;;20.15;14.50;;;;;;;11.60;76.64;100161.02;1725747;83;21118;-89
2021/11/03 10:30:30;;;;;;;20.45;15.00;;;;;;;11.56;76.62;100164.08;1696922;84;21519;-89
2021/11/03 10:32:57;;;;;;;28.67;18.57;;;;;;;11.51;76.47;100172.80;1726863;82;22022;-90
2021/11/03 10:35:40;;;;;;;23.25;17.40;;;;;;;11.41;76.31;100174.00;1698636;83;21580;-93
2021/11/03 10:38:15;;;;;;;21.23;14.25;;;;;;;11.33;76.34;100170.37;1698679;84;22455;-93
2021/11/03 10:40:58;;;;;;;16.42;12.88;;;;;;;11.28;76.45;100172.96;1709051;83;21067;-93
2021/11/03 10:43:39;;;;;;;20.35;13.30;;;;;;;11.26;76.49;100176.42;1727528;83;21106;-93
2021/11/03 10:46:22;;;;;;;18.27;12.85;;;;;;;11.24;76.53;100171.16;1698435;84;21082;-93
2021/11/03 10:48:55;;;;;;;17.00;12.70;;;;;;;11.29;76.56;100166.81;1709376;83;21106;-93
2021/11/03 10:51:26;;;;;;;18.12;12.00;;;;;;;11.38;76.71;100172.64;1720328;82;21826;-89
2021/11/03 10:54:07;;;;;;;16.80;12.13;;;;;;;11.50;76.74;100174.97;1716382;82;21039;-89
2021/11/03 10:56:37;;;;;;;15.43;12.33;;;;;;;11.59;76.57;100173.32;1718341;82;21086;-89
2021/11/03 10:59:21;;;;;;;15.48;10.60;;;;;;;11.70;76.34;100173.45;1718548;83;21314;-89
2021/11/03 11:01:48;;;;;;;13.58;10.03;;;;;;;11.79;76.27;100175.31;1717638;83;21596;-88
2021/11/03 11:04:22;;;;;;;13.75;10.85;;;;;;;11.83;75.93;100179.75;1718902;83;21838;-88
2021/11/03 11:06:51;;;;;;;13.30;10.63;;;;;;;11.83;75.84;100181.06;1718772;83;21183;-88
2021/11/03 11:09:32;;;;;;;15.85;11.12;;;;;;;11.89;75.81;100178.48;1718806;83;21532;-88
2021/11/03 11:12:04;;;;;;;16.40;10.48;;;;;;;11.97;75.80;100170.68;1718415;83;21062;-88
2021/11/03 11:14:32;;;;;;;14.95;10.40;;;;;;;12.03;75.77;100172.96;1718794;83;21079;-88
2021/11/03 11:17:15;;;;;;;14.55;10.38;;;;;;;12.06;75.71;100165.50;1718670;83;21787;-88
2021/11/03 11:19:59;;;;;;;17.07;10.95;;;;;;;12.10;75.70;100166.41;1633940;87;21265;-87
2021/11/03 11:22:37;;;;;;;17.45;10.53;;;;;;;12.09;75.59;100169.91;1634037;87;21131;-88
2021/11/03 11:25:17;;;;;;;11.97;9.45;;;;;;;12.11;75.60;100174.80;1633982;87;21091;-88
2021/11/03 11:28:15;;;;;;;13.83;8.85;;;;;;;12.05;75.36;100172.98;1633816;87;21127;-88
2021/11/03 11:30:58;;;;;;;11.88;9.08;;;;;;;12.01;75.19;100176.02;1633768;87;21869;-88
2021/11/03 11:33:30;;;;;;;28.55;18.23;;;;;;;11.96;75.16;100175.52;1602144;87;21334;-88
2021/11/03 11:36:29;;;;;;;20.17;13.18;;;;;;;11.88;74.95;100172.78;1632879;87;21639;-88